createdAt,value
2022-08-07T00:02:37.253Z,97293.59
2022-08-07T00:05:01.589Z,97295.75
2022-08-07T00:07:40.610Z,97296.99
2022-08-07T00:10:26.311Z,97298.23
2022-08-07T00:12:59.900Z,97297.40
2022-08-07T00:15:35.893Z,97296.65
2022-08-07T00:18:06.572Z,97300.73
2022-08-07T00:20:35.513Z,97305.54
2022-08-07T00:23:07.990Z,97305.06
2022-08-07T00:25:37.545Z,97306.20
2022-08-07T00:28:10.672Z,97304.77
2022-08-07T00:30:38.753Z,97308.35
2022-08-07T00:33:08.893Z,97304.65
2022-08-07T00:35:37.673Z,97310.21
2022-08-07T00:38:05.914Z,97315.92
2022-08-07T00:40:39.171Z,97318.09
2022-08-07T00:43:09.673Z,97316.17
2022-08-07T00:45:40.429Z,97321.08
2022-08-07T00:48:11.013Z,97316.25
2022-08-07T00:50:50.848Z,97319.05
2022-08-07T00:53:20.348Z,97319.34
2022-08-07T00:56:03.206Z,97319.09
2022-08-07T00:58:32.640Z,97318.95
2022-08-07T01:01:00.914Z,97318.36
2022-08-07T01:03:55.485Z,97316.83
2022-08-07T01:06:18.244Z,97316.10
2022-08-07T01:08:53.576Z,97317.75
2022-08-07T01:12:04.640Z,97316.93
2022-08-07T01:14:11.403Z,97316.50
2022-08-07T01:16:43.142Z,97316.55
2022-08-07T01:19:18.142Z,97316.58
2022-08-07T01:21:48.390Z,97314.64
2022-08-07T01:24:18.755Z,97311.17
2022-08-07T01:26:52.022Z,97313.64
2022-08-07T01:29:27.700Z,97315.40
2022-08-07T01:31:59.555Z,97315.67
2022-08-07T01:34:33.081Z,97318.41
2022-08-07T01:37:09.712Z,97318.54
2022-08-07T01:39:46.019Z,97319.65
2022-08-07T01:42:56.974Z,97319.25
2022-08-07T01:45:36.193Z,97316.53
2022-08-07T01:48:18.926Z,97317.11
2022-08-07T01:51:24.509Z,97320.73
2022-08-07T01:54:11.903Z,97318.42
2022-08-07T01:56:49.714Z,97325.73
2022-08-07T01:59:24.621Z,97329.59
2022-08-07T02:02:04.597Z,97327.27
2022-08-07T02:04:52.633Z,97319.48
2022-08-07T02:07:36.086Z,97318.33
2022-08-07T02:10:18.856Z,97321.07
2022-08-07T02:12:50.239Z,97318.83
2022-08-07T02:15:27.923Z,97319.96
2022-08-07T02:17:56.828Z,97319.87
2022-08-07T02:20:24.846Z,97320.64
2022-08-07T02:23:00.079Z,97322.66
2022-08-07T02:25:47.239Z,97332.17
2022-08-07T02:28:24.779Z,97334.81
2022-08-07T02:30:57.825Z,97334.73
2022-08-07T02:33:42.053Z,97333.09
2022-08-07T02:36:29.206Z,97334.39
2022-08-07T02:39:16.277Z,97335.38
2022-08-07T02:41:50.545Z,97340.87
2022-08-07T02:44:26.920Z,97345.60
2022-08-07T02:46:57.354Z,97341.81
2022-08-07T02:49:28.915Z,97342.20
2022-08-07T02:52:16.305Z,97339.48
2022-08-07T02:54:50.911Z,97340.75
2022-08-07T02:57:24.084Z,97340.70
2022-08-07T03:00:04.695Z,97345.66
2022-08-07T03:02:35.741Z,97349.30
2022-08-07T03:05:08.635Z,97350.75
2022-08-07T03:08:04.986Z,97355.89
2022-08-07T03:10:25.664Z,97354.94
2022-08-07T03:12:54.036Z,97354.90
2022-08-07T03:15:30.137Z,97354.02
2022-08-07T03:18:20.011Z,97354.95
2022-08-07T03:20:52.514Z,97355.88
2022-08-07T03:23:21.985Z,97356.71
2022-08-07T03:26:03.500Z,97360.25
2022-08-07T03:28:37.582Z,97359.05
2022-08-07T03:31:19.258Z,97359.70
2022-08-07T03:33:59.537Z,97362.35
2022-08-07T03:36:30.440Z,97365.10
2022-08-07T03:39:05.602Z,97366.67
2022-08-07T03:41:42.459Z,97366.48
2022-08-07T03:44:16.541Z,97370.34
2022-08-07T03:47:11.395Z,97373.71
2022-08-07T03:49:39.266Z,97374.67
2022-08-07T03:52:22.362Z,97379.41
2022-08-07T03:54:54.171Z,97377.27
2022-08-07T03:58:33.100Z,97375.65
2022-08-07T04:00:14.971Z,97373.14
2022-08-07T04:02:49.346Z,97372.60
2022-08-07T04:05:40.666Z,97374.08
2022-08-07T04:08:18.617Z,97378.63
2022-08-07T04:10:54.795Z,97382.18
2022-08-07T04:14:09.487Z,97384.91
2022-08-07T04:16:30.353Z,97383.67
2022-08-07T04:19:12.733Z,97386.70
2022-08-07T04:21:59.389Z,97394.95
2022-08-07T04:24:39.145Z,97393.17
2022-08-07T04:27:20.713Z,97389.98
2022-08-07T04:30:02.054Z,97393.39
2022-08-07T04:32:44.779Z,97393.69
2022-08-07T04:35:16.609Z,97395.92
2022-08-07T04:38:03.332Z,97396.34
2022-08-07T04:40:33.756Z,97400.62
2022-08-07T04:43:10.751Z,97403.30
2022-08-07T04:45:57.258Z,97405.91
2022-08-07T04:48:36.046Z,97406.58
2022-08-07T04:51:15.026Z,97399.76
2022-08-07T04:54:05.105Z,97393.80
2022-08-07T04:58:10.821Z,97393.42
2022-08-07T05:00:10.859Z,97398.75
2022-08-07T05:02:30.891Z,97398.55
2022-08-07T05:05:01.960Z,97398.29
2022-08-07T05:07:46.659Z,97400.55
2022-08-07T05:10:23.760Z,97404.80
2022-08-07T05:13:09.795Z,97411.39
2022-08-07T05:15:49.601Z,97415.01
2022-08-07T05:18:40.223Z,97416.04
2022-08-07T05:21:10.088Z,97418.70
2022-08-07T05:23:40.668Z,97418.59
2022-08-07T05:26:18.795Z,97417.02
2022-08-07T05:28:55.683Z,97420.37
2022-08-07T05:31:34.757Z,97419.65
2022-08-07T05:34:10.933Z,97421.88
2022-08-07T05:36:43.046Z,97424.64
2022-08-07T05:40:06.394Z,97427.46
2022-08-07T05:42:12.355Z,97428.32
2022-08-07T05:44:52.884Z,97429.84
2022-08-07T05:47:38.608Z,97427.59
2022-08-07T05:50:19.946Z,97430.60
2022-08-07T05:52:48.693Z,97428.86
2022-08-07T05:55:16.763Z,97432.52
2022-08-07T05:57:46.927Z,97431.32
2022-08-07T06:00:17.788Z,97435.78
2022-08-07T06:02:53.860Z,97438.83
2022-08-07T06:05:25.850Z,97431.42
2022-08-07T06:08:13.648Z,97435.91
2022-08-07T06:10:51.153Z,97437.20
2022-08-07T06:13:20.927Z,97434.41
2022-08-07T06:16:10.111Z,97435.60
2022-08-07T06:18:43.165Z,97432.23
2022-08-07T06:22:15.330Z,97435.59
2022-08-07T06:24:37.969Z,97435.45
2022-08-07T06:26:56.372Z,97438.17
2022-08-07T06:29:27.937Z,97440.23
2022-08-07T06:31:57.776Z,97440.06
2022-08-07T06:34:30.456Z,97437.98
2022-08-07T06:36:59.741Z,97437.57
2022-08-07T06:40:17.476Z,97439.67
2022-08-07T06:42:33.086Z,97438.59
2022-08-07T06:45:18.148Z,97435.38
2022-08-07T06:47:58.493Z,97432.58
2022-08-07T06:50:30.495Z,97430.63
2022-08-07T06:53:00.219Z,97430.42
2022-08-07T06:55:47.971Z,97429.46
2022-08-07T06:58:27.408Z,97427.70
2022-08-07T07:01:00.891Z,97428.88
2022-08-07T07:03:47.470Z,97430.81
2022-08-07T07:06:23.857Z,97427.66
2022-08-07T07:08:57.041Z,97428.47
2022-08-07T07:12:08.441Z,97426.79
2022-08-07T07:14:16.692Z,97428.23
2022-08-07T07:16:50.815Z,97429.83
2022-08-07T07:19:55.463Z,97433.02
2022-08-07T07:22:36.300Z,97433.25
2022-08-07T07:26:30.392Z,97435.48
2022-08-07T07:28:03.168Z,97436.61
2022-08-07T07:30:38.359Z,97438.44
2022-08-07T07:33:11.852Z,97438.66
2022-08-07T07:35:54.513Z,97434.77
2022-08-07T07:38:30.973Z,97433.87
2022-08-07T07:41:03.126Z,97432.85
2022-08-07T07:43:47.836Z,97433.47
2022-08-07T07:46:36.560Z,97436.04
2022-08-07T07:50:34.297Z,97432.38
2022-08-07T07:52:01.349Z,97428.08
2022-08-07T07:54:33.123Z,97428.58
2022-08-07T07:57:05.484Z,97427.35
2022-08-07T07:59:52.080Z,97429.86
2022-08-07T08:02:35.453Z,97425.98
2022-08-07T08:05:05.514Z,97422.40
2022-08-07T08:08:00.077Z,97416.39
2022-08-07T08:10:37.954Z,97417.70
2022-08-07T08:13:10.660Z,97419.58
2022-08-07T08:15:58.695Z,97419.92
2022-08-07T08:18:28.266Z,97416.20
2022-08-07T08:20:58.989Z,97414.43
2022-08-07T08:23:47.146Z,97410.08
2022-08-07T08:26:34.464Z,97411.78
2022-08-07T08:29:04.405Z,97412.64
2022-08-07T08:32:17.540Z,97413.80
2022-08-07T08:34:33.190Z,97412.20
2022-08-07T08:37:03.209Z,97409.06
2022-08-07T08:39:39.272Z,97411.21
2022-08-07T08:42:40.460Z,97412.93
2022-08-07T08:45:41.934Z,97412.45
2022-08-07T08:48:44.352Z,97413.56
2022-08-07T08:51:14.674Z,97409.70
2022-08-07T08:54:17.309Z,97411.27
2022-08-07T08:56:49.968Z,97413.11
2022-08-07T08:59:41.746Z,97411.98
2022-08-07T09:02:35.050Z,97411.89
2022-08-07T09:05:17.966Z,97411.61
2022-08-07T09:07:58.169Z,97404.89
2022-08-07T09:10:35.094Z,97403.42
2022-08-07T09:13:17.961Z,97400.70
2022-08-07T09:16:21.701Z,97395.32
2022-08-07T09:18:58.439Z,97400.04
2022-08-07T09:22:09.798Z,97400.30
2022-08-07T09:25:00.885Z,97402.97
2022-08-07T09:27:59.544Z,97400.82
2022-08-07T09:30:33.438Z,97401.83
2022-08-07T09:33:16.452Z,97401.23
2022-08-07T09:36:02.989Z,97398.66
2022-08-07T09:38:57.229Z,97397.74
2022-08-07T09:41:59.146Z,97395.66
2022-08-07T09:44:46.559Z,97392.67
2022-08-07T09:47:49.843Z,97386.86
2022-08-07T09:50:18.460Z,97376.95
2022-08-07T09:52:51.830Z,97379.98
2022-08-07T09:56:03.274Z,97381.43
2022-08-07T09:58:42.414Z,97382.92
2022-08-07T10:01:52.213Z,97384.50
2022-08-07T10:04:32.753Z,97380.78
2022-08-07T10:07:04.179Z,97378.73
2022-08-07T10:09:42.591Z,97374.02
2022-08-07T10:12:52.629Z,97369.23
2022-08-07T10:15:30.298Z,97369.58
2022-08-07T10:18:18.040Z,97368.60
2022-08-07T10:20:50.501Z,97367.15
2022-08-07T10:24:06.443Z,97363.95
2022-08-07T10:26:35.550Z,97365.55
2022-08-07T10:29:16.968Z,97364.36
2022-08-07T10:32:04.488Z,97359.94
2022-08-07T10:34:32.579Z,97358.22
2022-08-07T10:37:12.858Z,97356.08
2022-08-07T10:40:02.613Z,97353.09
2022-08-07T10:42:37.041Z,97351.77
2022-08-07T10:45:45.056Z,97352.52
2022-08-07T10:48:34.746Z,97352.88
2022-08-07T10:51:16.397Z,97346.31
2022-08-07T10:54:00.197Z,97345.86
2022-08-07T10:56:32.998Z,97344.56
2022-08-07T10:59:21.405Z,97341.31
2022-08-07T11:02:04.858Z,97339.18
2022-08-07T11:04:48.828Z,97336.77
2022-08-07T11:07:56.544Z,97333.38
2022-08-07T11:10:12.442Z,97337.20
2022-08-07T11:12:45.513Z,97335.30
2022-08-07T11:15:31.502Z,97327.74
2022-08-07T11:18:03.432Z,97323.08
2022-08-07T11:20:38.374Z,97319.52
2022-08-07T11:23:26.377Z,97318.85
2022-08-07T11:26:06.513Z,97315.88
2022-08-07T11:28:38.625Z,97307.15
2022-08-07T11:31:24.821Z,97306.37
2022-08-07T11:34:03.213Z,97304.02
2022-08-07T11:36:39.525Z,97298.39
2022-08-07T11:39:23.313Z,97300.06
2022-08-07T11:42:03.194Z,97295.20
2022-08-07T11:44:37.716Z,97288.98
2022-08-07T11:47:15.022Z,97290.04
2022-08-07T11:50:31.196Z,97286.59
2022-08-07T11:52:52.099Z,97284.53
2022-08-07T11:56:09.253Z,97278.64
2022-08-07T11:58:33.148Z,97275.50
2022-08-07T12:01:05.048Z,97270.05
2022-08-07T12:03:42.019Z,97262.02
2022-08-07T12:06:39.697Z,97259.86
2022-08-07T12:09:03.532Z,97259.98
2022-08-07T12:12:09.277Z,97256.19
2022-08-07T12:14:55.384Z,97259.18
2022-08-07T12:17:33.459Z,97257.70
2022-08-07T12:20:10.323Z,97256.11
2022-08-07T12:22:58.673Z,97249.25
2022-08-07T12:26:03.022Z,97245.64
2022-08-07T12:28:57.483Z,97238.06
2022-08-07T12:31:52.518Z,97238.18
2022-08-07T12:34:19.320Z,97239.35
2022-08-07T12:36:50.084Z,97237.67
2022-08-07T12:39:42.729Z,97233.09
2022-08-07T12:42:13.092Z,97227.06
2022-08-07T12:44:45.219Z,97225.29
2022-08-07T12:47:27.133Z,97224.27
2022-08-07T12:50:34.321Z,97220.41
2022-08-07T12:53:05.313Z,97217.66
2022-08-07T12:56:02.062Z,97213.02
2022-08-07T12:58:35.559Z,97212.11
2022-08-07T13:01:08.038Z,97208.88
2022-08-07T13:03:59.054Z,97210.95
2022-08-07T13:06:54.373Z,97216.83
2022-08-07T13:10:19.312Z,97213.15
2022-08-07T13:12:33.908Z,97212.08
2022-08-07T13:15:07.596Z,97206.41
2022-08-07T13:17:46.723Z,97203.78
2022-08-07T13:20:27.828Z,97204.38
2022-08-07T13:23:09.829Z,97206.05
2022-08-07T13:26:00.940Z,97208.00
2022-08-07T13:28:34.132Z,97207.11
2022-08-07T13:31:55.068Z,97206.17
2022-08-07T13:34:36.075Z,97207.25
2022-08-07T13:37:24.532Z,97207.40
2022-08-07T13:40:35.882Z,97206.62
2022-08-07T13:42:51.521Z,97196.40
2022-08-07T13:46:11.339Z,97193.19
2022-08-07T13:48:27.570Z,97194.14
2022-08-07T13:51:01.840Z,97190.98
2022-08-07T13:54:00.919Z,97192.17
2022-08-07T13:56:35.831Z,97189.56
2022-08-07T13:59:15.754Z,97186.36
2022-08-07T14:01:59.405Z,97189.92
2022-08-07T14:04:35.796Z,97191.36
2022-08-07T14:07:09.388Z,97189.60
2022-08-07T14:10:17.658Z,97194.59
2022-08-07T14:12:41.425Z,97196.95
2022-08-07T14:15:18.716Z,97198.02
2022-08-07T14:18:15.711Z,97197.57
2022-08-07T14:20:41.939Z,97200.42
2022-08-07T14:23:18.035Z,97205.85
2022-08-07T14:26:08.479Z,97207.29
2022-08-07T14:28:57.387Z,97205.95
2022-08-07T14:31:26.180Z,97212.66
2022-08-07T14:34:12.355Z,97208.85
2022-08-07T14:36:55.938Z,97208.94
2022-08-07T14:40:15.987Z,97213.63
2022-08-07T14:47:59.052Z,97223.80
2022-08-07T14:50:28.820Z,97221.08
2022-08-07T14:56:13.049Z,97220.40
2022-08-07T14:58:45.472Z,97214.27
2022-08-07T15:01:22.609Z,97214.44
2022-08-07T15:03:53.264Z,97214.30
2022-08-07T15:06:25.185Z,97217.10
2022-08-07T15:08:55.663Z,97217.27
2022-08-07T15:11:52.834Z,97222.44
2022-08-07T15:14:16.642Z,97232.95
2022-08-07T15:16:54.883Z,97231.27
2022-08-07T15:20:31.585Z,97230.60
2022-08-07T15:22:22.118Z,97234.64
2022-08-07T15:28:33.092Z,97244.27
2022-08-07T15:33:34.059Z,97250.89
2022-08-07T15:36:06.800Z,97251.55
2022-08-07T15:38:58.711Z,97253.08
2022-08-07T15:42:44.358Z,97257.73
2022-08-07T15:44:17.449Z,97264.96
2022-08-07T15:46:52.764Z,97271.16
2022-08-07T15:50:05.022Z,97272.71
2022-08-07T15:52:17.184Z,97278.20
2022-08-07T15:54:50.956Z,97271.42
2022-08-07T15:57:39.296Z,97276.91
2022-08-07T16:00:22.728Z,97277.54
2022-08-07T16:03:06.955Z,97280.11
2022-08-07T16:05:50.146Z,97276.67
2022-08-07T16:08:30.357Z,97273.14
2022-08-07T16:11:27.139Z,97272.20
2022-08-07T16:13:59.977Z,97274.10
2022-08-07T16:16:48.223Z,97271.17
2022-08-07T16:19:20.482Z,97275.20
2022-08-07T16:22:55.132Z,97278.71
2022-08-07T16:25:54.324Z,97279.63
2022-08-07T16:30:06.257Z,97282.75
2022-08-07T16:31:50.860Z,97290.27
2022-08-07T16:34:23.875Z,97293.27
2022-08-07T16:38:04.242Z,97295.73
2022-08-07T16:40:03.232Z,97300.13
2022-08-07T16:42:43.100Z,97298.67
2022-08-07T16:46:21.157Z,97301.41
2022-08-07T16:49:04.012Z,97307.46
2022-08-07T16:51:52.069Z,97311.09
2022-08-07T16:54:19.424Z,97311.80
2022-08-07T16:57:01.806Z,97310.67
2022-08-07T16:59:46.611Z,97316.91
2022-08-07T17:02:15.488Z,97318.34
2022-08-07T17:06:19.759Z,97314.44
2022-08-07T17:08:00.250Z,97313.48
2022-08-07T17:10:33.722Z,97317.84
2022-08-07T17:13:01.793Z,97318.05
2022-08-07T17:15:44.368Z,97319.64
2022-08-07T17:18:26.430Z,97323.14
2022-08-07T17:20:55.123Z,97324.02
2022-08-07T17:23:22.914Z,97326.35
2022-08-07T17:26:03.757Z,97328.56
2022-08-07T17:28:50.064Z,97331.41
2022-08-07T17:31:25.073Z,97332.88
2022-08-07T17:34:18.080Z,97337.58
2022-08-07T17:36:59.837Z,97337.22
2022-08-07T17:39:58.834Z,97338.93
2022-08-07T17:43:18.158Z,97338.87
2022-08-07T17:45:57.137Z,97344.93
2022-08-07T17:48:30.990Z,97345.84
2022-08-07T17:51:06.183Z,97350.52
2022-08-07T17:54:00.934Z,97352.20
2022-08-07T17:56:32.140Z,97355.33
2022-08-07T17:59:11.159Z,97353.63
2022-08-07T18:01:52.022Z,97354.95
2022-08-07T18:04:30.988Z,97356.13
2022-08-07T18:07:20.624Z,97356.55
2022-08-07T18:10:06.078Z,97359.47
2022-08-07T18:12:38.841Z,97365.30
2022-08-07T18:15:09.704Z,97366.21
2022-08-07T18:18:46.011Z,97367.05
2022-08-07T18:21:09.846Z,97369.80
2022-08-07T18:23:42.969Z,97375.36
2022-08-07T18:26:18.907Z,97374.41
2022-08-07T18:30:07.971Z,97380.48
2022-08-07T18:32:16.750Z,97383.06
2022-08-07T18:35:17.557Z,97384.31
2022-08-07T18:38:56.300Z,97389.02
2022-08-07T18:40:53.487Z,97393.66
2022-08-07T18:43:36.843Z,97394.19
2022-08-07T18:46:24.855Z,97394.88
2022-08-07T18:50:30.516Z,97395.68
2022-08-07T18:52:38.202Z,97396.17
2022-08-07T18:54:50.845Z,97395.95
2022-08-07T18:57:31.445Z,97397.62
2022-08-07T19:00:33.289Z,97402.20
2022-08-07T19:03:03.765Z,97401.26
2022-08-07T19:06:03.426Z,97402.60
2022-08-07T19:08:41.853Z,97403.82
2022-08-07T19:11:36.378Z,97403.48
2022-08-07T19:14:24.015Z,97405.12
2022-08-07T19:17:08.206Z,97406.67
2022-08-07T19:20:00.776Z,97409.56
2022-08-07T19:22:36.199Z,97414.71
2022-08-07T19:25:12.684Z,97416.54
2022-08-07T19:28:58.267Z,97412.77
2022-08-07T19:31:04.084Z,97413.89
2022-08-07T19:33:43.053Z,97414.84
2022-08-07T19:36:13.210Z,97417.77
2022-08-07T19:38:52.952Z,97420.73
2022-08-07T19:41:44.398Z,97423.38
2022-08-07T19:44:22.056Z,97425.86
2022-08-07T19:46:55.757Z,97423.48
2022-08-07T19:49:57.642Z,97425.02
2022-08-07T19:52:18.427Z,97430.71
2022-08-07T19:54:56.564Z,97432.10
2022-08-07T19:58:01.452Z,97432.09
2022-08-07T20:00:28.337Z,97435.21
2022-08-07T20:03:02.035Z,97434.34
2022-08-07T20:05:31.529Z,97432.98
2022-08-07T20:08:24.953Z,97428.79
2022-08-07T20:11:09.517Z,97432.45
2022-08-07T20:13:49.785Z,97433.77
2022-08-07T20:16:34.674Z,97434.36
2022-08-07T20:19:10.145Z,97432.73
2022-08-07T20:21:47.160Z,97430.81
2022-08-07T20:24:22.134Z,97428.85
2022-08-07T20:26:52.338Z,97427.13
2022-08-07T20:29:48.703Z,97425.75
2022-08-07T20:32:22.218Z,97419.83
2022-08-07T20:34:52.145Z,97417.05
2022-08-07T20:37:33.709Z,97415.98
2022-08-07T20:40:32.518Z,97420.98
2022-08-07T20:42:57.986Z,97422.03
2022-08-07T20:45:33.573Z,97423.86
2022-08-07T20:48:28.395Z,97428.27
2022-08-07T20:50:59.624Z,97425.42
2022-08-07T20:54:03.086Z,97428.34
2022-08-07T20:56:26.213Z,97428.83
2022-08-07T20:58:58.640Z,97430.33
2022-08-07T21:01:29.564Z,97436.32
2022-08-07T21:04:21.715Z,97439.16
2022-08-07T21:06:55.392Z,97442.71
2022-08-07T21:09:30.565Z,97442.57
2022-08-07T21:12:25.914Z,97441.16
2022-08-07T21:14:59.028Z,97440.77
2022-08-07T21:18:20.243Z,97442.81
2022-08-07T21:20:29.811Z,97441.71
2022-08-07T21:23:08.763Z,97445.03
2022-08-07T21:25:56.118Z,97451.19
2022-08-07T21:28:48.679Z,97452.83
2022-08-07T21:32:42.874Z,97458.10
2022-08-07T21:34:32.718Z,97460.02
2022-08-07T21:37:03.932Z,97459.30
2022-08-07T21:39:46.706Z,97465.52
2022-08-07T21:42:48.200Z,97464.66
2022-08-07T21:46:05.086Z,97462.69
2022-08-07T21:48:27.662Z,97465.67
2022-08-07T21:51:19.851Z,97464.80
2022-08-07T21:53:59.546Z,97462.98
2022-08-07T21:56:39.783Z,97466.67
2022-08-07T22:00:02.929Z,97465.02
2022-08-07T22:02:52.395Z,97465.77
2022-08-07T22:05:46.048Z,97460.98
2022-08-07T22:08:12.531Z,97466.39
2022-08-07T22:10:44.501Z,97464.98
2022-08-07T22:13:16.003Z,97469.00
2022-08-07T22:16:42.549Z,97473.16
2022-08-07T22:18:54.432Z,97471.97
2022-08-07T22:22:02.019Z,97473.54
2022-08-07T22:24:33.021Z,97478.26
2022-08-07T22:27:17.945Z,97477.39
2022-08-07T22:29:52.286Z,97477.69
2022-08-07T22:32:42.316Z,97478.96
2022-08-07T22:35:12.399Z,97481.31
2022-08-07T22:38:09.298Z,97481.92
2022-08-07T22:40:52.880Z,97484.35
2022-08-07T22:43:31.661Z,97485.69
2022-08-07T22:47:02.696Z,97486.38
2022-08-07T22:49:12.680Z,97486.55
2022-08-07T22:52:02.688Z,97490.56
2022-08-07T22:54:37.519Z,97486.14
2022-08-07T22:57:26.009Z,97485.19
2022-08-07T23:00:03.512Z,97485.97
2022-08-07T23:02:41.437Z,97489.91
2022-08-07T23:06:07.182Z,97490.13
2022-08-07T23:08:46.123Z,97489.34
2022-08-07T23:11:25.591Z,97489.48
2022-08-07T23:14:17.466Z,97485.94
2022-08-07T23:17:03.767Z,97489.34
2022-08-07T23:19:51.834Z,97490.97
2022-08-07T23:22:30.215Z,97489.46
2022-08-07T23:24:58.653Z,97490.55
2022-08-07T23:27:34.026Z,97485.98
2022-08-07T23:30:35.977Z,97485.66
2022-08-07T23:34:35.742Z,97490.22
2022-08-07T23:35:49.002Z,97490.68
2022-08-07T23:38:36.291Z,97495.31
2022-08-07T23:41:10.437Z,97494.42
2022-08-07T23:43:38.808Z,97493.80
2022-08-07T23:46:20.062Z,97493.16
2022-08-07T23:48:56.149Z,97487.71
2022-08-07T23:52:57.921Z,97488.41
2022-08-07T23:54:28.614Z,97490.60
2022-08-07T23:57:09.047Z,97492.80
